»·PEaware :: DAL319 KPDX-KSEA

DAL319 :: KPDX-KSEA

FLIGHT INFORMATION

Flight Status: Arrived
Operator:
Delta Air Lines
More flights by this operator :: More flights under this callsign
Pilot: Dean L. (8400)
Aircraft: AIRBUS A319
(A319)
More flights by this aircraft type
Origin: KPDX Portland Intl
United States
Destination: KSEA Seattle-Tacoma Intl
United States
More flights between these airports :: More routes between these airports
Route: +PTLD1 COUGA KRIEG HAWKZ6
File this flight plan on PilotEdge
Remarks:
Altitude:
(Current/Filed)
18,000ft
Speed:
(Current/Filed)
370kts
Departed: 14-Jul-18 11:54 AM
Arrived: 14-Jul-18 12:22 PM
Distance/Time
Traveled:
113nm/0:28
Distance/Time
To Go:
Arrived

Flight Plot

Page will automatically refresh every two minutes.

Flight plan parsing failed; only flown route is shown


Map Options




Map Legend


Flown Route
Filed Route
Departure Airport
Arrival Airport
Navaid (VOR, NDB)
Fix

Horizontal Profiles

Position Reports

Time Latitude Longitude Heading Altitude Ground
Speed
14-Jul-18 11:23 45.589791 -122.596577 210 32ft 0kts
14-Jul-18 11:24 45.589791 -122.596577 210 32ft 0kts
14-Jul-18 11:25 45.589791 -122.596577 210 32ft 0kts
14-Jul-18 11:26 45.589791 -122.596577 210 32ft 0kts
14-Jul-18 11:27 45.589791 -122.596577 210 32ft 0kts
14-Jul-18 11:28 45.589791 -122.596577 210 32ft 0kts
14-Jul-18 11:29 45.589791 -122.596577 210 32ft 0kts
14-Jul-18 11:30 45.589791 -122.596577 210 32ft 0kts
14-Jul-18 11:31 45.589790 -122.596578 210 32ft 0kts
14-Jul-18 11:32 45.589788 -122.596579 210 32ft 0kts
14-Jul-18 11:33 45.589785 -122.596582 210 32ft 0kts
14-Jul-18 11:34 45.589782 -122.596584 210 32ft 0kts
14-Jul-18 11:35 45.589782 -122.596584 210 32ft 0kts
14-Jul-18 11:36 45.589782 -122.596584 210 32ft 0kts
14-Jul-18 11:37 45.589782 -122.596584 210 32ft 0kts
14-Jul-18 11:38 45.589782 -122.596584 210 32ft 0kts
14-Jul-18 11:39 45.589782 -122.596584 210 32ft 0kts
14-Jul-18 11:40 45.589782 -122.596584 210 32ft 0kts
14-Jul-18 11:41 45.589782 -122.596584 210 32ft 0kts
14-Jul-18 11:42 45.589782 -122.596584 210 32ft 0kts
14-Jul-18 11:43 45.589782 -122.596584 210 32ft 0kts
14-Jul-18 11:44 45.589782 -122.596584 210 32ft 0kts
14-Jul-18 11:45 45.589782 -122.596584 210 32ft 0kts
14-Jul-18 11:46 45.589782 -122.596584 210 32ft 0kts
14-Jul-18 11:47 45.589781 -122.596585 210 32ft 0kts
14-Jul-18 11:48 45.591485 -122.599583 314 32ft 6kts
14-Jul-18 11:49 45.591487 -122.600661 264 32ft 0kts
14-Jul-18 11:50 45.591486 -122.600671 264 32ft 0kts
14-Jul-18 11:51 45.587404 -122.595982 118 32ft 32kts
14-Jul-18 11:52 45.582472 -122.585284 118 32ft 31kts
14-Jul-18 11:53 45.581307 -122.583491 179 32ft 0kts
14-Jul-18 11:54 45.581221 -122.583517 195 32ft 11kts
14-Jul-18 11:55 45.592270 -122.613546 299 473ft 209kts
14-Jul-18 11:56 45.624832 -122.700517 298 6711ft 320kts
14-Jul-18 11:57 45.669241 -122.789180 323 6594ft 249kts
14-Jul-18 11:58 45.737930 -122.792765 6 9588ft 266kts
14-Jul-18 11:59 45.826302 -122.766278 8 12375ft 379kts
14-Jul-18 12:00 45.931330 -122.731913 9 13833ft 391kts
14-Jul-18 12:01 46.039864 -122.695246 10 17432ft 408kts
14-Jul-18 12:02 46.152115 -122.691185 350 17591ft 403kts
14-Jul-18 12:03 46.263230 -122.711630 349 17228ft 403kts
14-Jul-18 12:04 46.375317 -122.724493 355 16224ft 404kts
14-Jul-18 12:05 46.485326 -122.728203 355 14089ft 385kts
14-Jul-18 12:06 46.589536 -122.731877 355 10488ft 363kts
14-Jul-18 12:07 46.677834 -122.734946 354 9936ft 274kts
14-Jul-18 12:08 46.751579 -122.737707 354 7902ft 260kts
14-Jul-18 12:09 46.817941 -122.697868 32 5766ft 264kts
14-Jul-18 12:10 46.875737 -122.628259 32 5593ft 269kts
14-Jul-18 12:11 46.933994 -122.562979 31 5591ft 258kts
14-Jul-18 12:12 46.990481 -122.499608 31 5593ft 257kts
14-Jul-18 12:13 47.042814 -122.440603 31 5591ft 221kts
14-Jul-18 12:14 47.091762 -122.385402 31 5919ft 220kts
14-Jul-18 12:15 47.140994 -122.345317 6 5988ft 193kts
14-Jul-18 12:16 47.193369 -122.329369 4 5201ft 182kts
14-Jul-18 12:17 47.242046 -122.314209 0 3155ft 185kts
14-Jul-18 12:18 47.289094 -122.312531 357 2989ft 149kts
14-Jul-18 12:19 47.326949 -122.312136 356 2796ft 132kts
14-Jul-18 12:20 47.362123 -122.311892 356 2040ft 119kts
14-Jul-18 12:21 47.395360 -122.311625 356 1411ft 122kts
14-Jul-18 12:22 47.428656 -122.311303 356 658ft 111kts
14-Jul-18 12:23 47.452265 -122.310989 14 447ft 31kts
14-Jul-18 12:24 47.454378 -122.309358 30 447ft 0kts
14-Jul-18 12:25 47.454985 -122.302547 124 447ft 0kts

Navigation Log

Ident Type
Flight plan parsing failed, navigation log unavailable